Ashton, Idaho
Current Conditions -  °F | °C
As of 4:53 AM on Wednesday 26 Nov 2014 (Local Time) from KRXE Reporting Station
Broken Clouds Broken Clouds  
Wind Chill: 30°   Ceiling: 1200
Heat Index: 39°   Visibility: 10mi
Dew Point: 35°   Wind: 16mph
Humidity: 86%   Direction: 220°SW
Pressure: 30.17"   Gusts: 28mph
Location:  44.07°N, 111.45°W
Report Text: KRXE 261153Z AUTO 22014G24KT 10SM BKN012 BKN090 04/02 A3017 RMK AO2 SLP222 T00390017 10044 20039 51010
Loading
Personal Weather Stations






























Interactive Weather Map New forecast layout! Learn more

10-Day Weather Forecast

Advertisements
Track Severe Weather on mobile